Time;durP1;ratioP1;P1;durP2;ratioP2;P2;SDS_P1;SDS_P2;PMS_P1;PMS_P2;Temp;Humidity;BMP_temperature;BMP_pressure;BME280_temperature;BME280_humidity;BME280_pressure;Samples;Min_cycle;Max_cycle;Signal;HPM_P1;HPM_P2
2022/10/27 00:02:13;;;;;;;7.97;5.60;;;12.30;99.90;;;;;;4928326;29;20209;-78
2022/10/27 00:04:38;;;;;;;9.73;6.03;;;12.30;99.90;;;;;;4928270;29;20187;-78
2022/10/27 00:07:04;;;;;;;6.97;5.17;;;12.20;99.90;;;;;;4927225;29;20213;-80
2022/10/27 00:09:30;;;;;;;6.50;4.67;;;12.20;99.90;;;;;;4931573;29;20224;-78
2022/10/27 00:11:56;;;;;;;5.73;4.87;;;12.20;99.90;;;;;;4928922;29;20222;-78
2022/10/27 00:14:21;;;;;;;6.07;5.17;;;12.20;99.90;;;;;;4932171;29;20214;-80
2022/10/27 00:16:55;;;;;;;5.03;4.53;;;12.20;99.90;;;;;;4933799;29;20624;-79
2022/10/27 00:19:22;;;;;;;5.77;4.80;;;12.10;99.90;;;;;;4932583;29;20219;-79
2022/10/27 00:21:49;;;;;;;6.40;5.57;;;12.10;99.90;;;;;;4931825;29;20347;-79
2022/10/27 00:24:14;;;;;;;6.83;5.67;;;12.10;99.90;;;;;;4931626;29;20665;-79
2022/10/27 00:26:40;;;;;;;6.93;5.13;;;12.10;99.90;;;;;;4931648;29;21003;-80
2022/10/27 00:29:05;;;;;;;6.47;5.90;;;12.20;99.90;;;;;;4931913;29;20215;-80
2022/10/27 00:31:31;;;;;;;9.40;5.23;;;12.20;99.90;;;;;;4930655;29;20228;-78
2022/10/27 00:33:56;;;;;;;8.10;5.43;;;12.30;99.90;;;;;;4932104;29;20231;-80
2022/10/27 00:36:23;;;;;;;10.27;5.53;;;12.30;99.90;;;;;;4932045;29;20195;-79
2022/10/27 00:38:52;;;;;;;10.47;5.80;;;12.30;99.90;;;;;;4941200;29;20238;-80
2022/10/27 00:41:32;;;;;;;9.33;5.00;;;12.30;99.90;;;;;;4940820;29;20277;-79
2022/10/27 00:44:00;;;;;;;8.20;5.70;;;12.30;99.90;;;;;;4936515;29;20209;-78
2022/10/27 00:46:45;;;;;;;6.20;5.60;;;12.20;99.90;;;;;;4941127;29;20220;-81
2022/10/27 00:49:17;;;;;;;11.87;5.80;;;12.20;99.90;;;;;;4941249;29;20286;-81
2022/10/27 00:51:47;;;;;;;7.37;5.87;;;12.20;99.90;;;;;;4941079;29;20233;-83
2022/10/27 00:54:15;;;;;;;7.23;5.10;;;12.10;99.90;;;;;;4937786;28;20787;-83
2022/10/27 00:56:43;;;;;;;7.77;5.73;;;12.10;99.90;;;;;;4941438;29;21056;-83
2022/10/27 00:59:08;;;;;;;7.70;6.00;;;12.20;99.90;;;;;;4941755;29;20573;-84
2022/10/27 01:01:35;;;;;;;7.70;5.87;;;12.20;99.90;;;;;;4941218;29;20202;-84
2022/10/27 01:04:03;;;;;;;9.20;4.97;;;12.20;99.90;;;;;;4941443;29;20570;-84
2022/10/27 01:06:29;;;;;;;10.60;6.10;;;12.20;99.90;;;;;;4938409;29;20221;-83
2022/10/27 01:08:56;;;;;;;9.07;5.90;;;12.20;99.90;;;;;;4937638;29;20224;-83
2022/10/27 01:11:21;;;;;;;10.87;6.03;;;12.20;99.90;;;;;;4941775;29;20299;-84
2022/10/27 01:13:47;;;;;;;10.00;6.23;;;12.20;99.90;;;;;;4939604;29;20753;-84
2022/10/27 01:16:36;;;;;;;6.87;5.17;;;12.20;99.90;;;;;;4939209;29;20307;-84
2022/10/27 01:19:49;;;;;;;8.37;6.13;;;12.20;99.90;;;;;;4935072;29;20208;-86
2022/10/27 01:22:41;;;;;;;6.37;5.70;;;12.20;99.90;;;;;;4899647;28;20345;-84
2022/10/27 01:25:37;;;;;;;6.10;4.80;;;12.20;99.90;;;;;;4939155;29;20676;-78
2022/10/27 01:28:08;;;;;;;6.90;5.37;;;12.20;99.90;;;;;;4932966;29;20228;-78
2022/10/27 01:31:00;;;;;;;7.03;5.57;;;12.20;99.90;;;;;;4935718;29;20239;-78
2022/10/27 01:33:36;;;;;;;9.30;5.93;;;12.20;99.90;;;;;;4940502;29;20233;-78
2022/10/27 01:36:06;;;;;;;7.60;5.83;;;12.20;99.90;;;;;;4940355;29;20266;-78
2022/10/27 01:38:39;;;;;;;7.07;6.13;;;12.30;99.90;;;;;;4940011;29;20304;-80
2022/10/27 01:41:27;;;;;;;9.63;7.17;;;12.30;99.90;;;;;;4936821;29;20224;-78
2022/10/27 01:43:57;;;;;;;12.13;6.87;;;12.30;99.90;;;;;;4939419;29;20635;-77
2022/10/27 01:46:24;;;;;;;8.53;5.73;;;12.30;99.90;;;;;;4938107;29;20292;-78
2022/10/27 01:48:50;;;;;;;10.27;6.60;;;12.30;99.90;;;;;;4935492;29;20305;-77
2022/10/27 01:51:15;;;;;;;7.17;6.30;;;12.30;99.90;;;;;;4930762;29;20349;-78
2022/10/27 01:53:45;;;;;;;9.00;6.23;;;12.30;99.90;;;;;;4930584;28;20306;-78
2022/10/27 01:56:40;;;;;;;9.27;5.47;;;12.30;99.90;;;;;;4929191;29;20303;-78
2022/10/27 01:59:41;;;;;;;7.63;6.97;;;12.30;99.90;;;;;;4927761;29;20547;-78
2022/10/27 02:02:33;;;;;;;7.57;6.00;;;12.30;99.90;;;;;;4925568;29;20223;-78
2022/10/27 02:05:08;;;;;;;11.73;6.97;;;12.30;99.90;;;;;;4928407;29;20199;-78
2022/10/27 02:07:55;;;;;;;11.30;6.50;;;12.30;99.90;;;;;;4928280;29;20216;-78
2022/10/27 02:10:33;;;;;;;8.93;6.50;;;12.30;99.90;;;;;;4924701;29;20212;-79
2022/10/27 02:12:59;;;;;;;11.13;6.50;;;12.30;99.90;;;;;;4929857;29;20218;-79
2022/10/27 02:15:32;;;;;;;9.80;6.40;;;12.30;99.90;;;;;;4928006;29;20212;-79
2022/10/27 02:18:11;;;;;;;12.07;7.53;;;12.20;99.90;;;;;;4929489;29;20314;-78
2022/10/27 02:20:41;;;;;;;5.83;5.23;;;12.20;99.90;;;;;;4938060;29;20218;-79
2022/10/27 02:23:10;;;;;;;9.37;6.37;;;12.10;99.90;;;;;;4939624;29;20645;-79
2022/10/27 02:25:43;;;;;;;8.70;5.67;;;12.10;99.90;;;;;;4939763;29;20265;-79
2022/10/27 02:28:12;;;;;;;10.13;6.70;;;12.00;99.90;;;;;;4939411;29;20206;-79
2022/10/27 02:30:39;;;;;;;8.40;6.67;;;12.00;99.90;;;;;;4939706;29;20236;-79
2022/10/27 02:33:05;;;;;;;9.73;6.27;;;11.90;99.90;;;;;;4927648;29;20700;-68
2022/10/27 02:35:30;;;;;;;7.40;6.63;;;11.90;99.90;;;;;;4929250;29;20312;-78
2022/10/27 02:37:57;;;;;;;10.23;7.77;;;11.90;99.90;;;;;;4928914;29;20296;-76
2022/10/27 02:40:24;;;;;;;11.03;8.20;;;11.90;99.90;;;;;;4929246;29;20200;-79
2022/10/27 02:42:50;;;;;;;7.83;7.07;;;11.80;99.90;;;;;;4928370;29;20232;-81
2022/10/27 02:45:15;;;;;;;13.73;7.43;;;11.80;99.90;;;;;;4932675;29;20217;-76
2022/10/27 02:47:41;;;;;;;11.33;7.63;;;11.80;99.90;;;;;;4931676;29;20233;-80
2022/10/27 02:50:06;;;;;;;7.43;6.47;;;11.70;99.90;;;;;;4928929;29;20271;-82
2022/10/27 02:52:32;;;;;;;11.27;7.57;;;11.80;99.90;;;;;;4930297;28;20727;-83
2022/10/27 02:54:57;;;;;;;9.93;6.93;;;11.80;99.90;;;;;;4929242;29;20554;-81
2022/10/27 02:57:23;;;;;;;8.40;6.93;;;11.80;99.90;;;;;;4926174;29;20204;-81
2022/10/27 02:59:48;;;;;;;8.27;6.97;;;11.80;99.90;;;;;;4929141;29;20669;-81
2022/10/27 03:02:14;;;;;;;9.80;7.27;;;11.90;99.90;;;;;;4926557;29;20206;-79
2022/10/27 03:04:39;;;;;;;10.17;7.33;;;11.90;99.90;;;;;;4928320;29;20210;-80
2022/10/27 03:07:05;;;;;;;8.73;7.60;;;11.80;99.90;;;;;;4929150;29;20580;-81
2022/10/27 03:09:30;;;;;;;10.77;6.60;;;11.80;99.90;;;;;;4929099;29;20201;-81
2022/10/27 03:11:55;;;;;;;9.00;7.57;;;11.80;99.90;;;;;;4929430;29;20353;-81
2022/10/27 03:14:21;;;;;;;13.30;7.53;;;11.80;99.90;;;;;;4929486;29;20277;-80
2022/10/27 03:16:46;;;;;;;9.00;7.03;;;11.70;99.90;;;;;;4929209;29;20664;-79
2022/10/27 03:19:12;;;;;;;11.70;8.07;;;11.70;99.90;;;;;;4927321;29;20227;-77
2022/10/27 03:21:37;;;;;;;9.67;8.03;;;11.70;99.90;;;;;;4929415;29;20675;-76
2022/10/27 03:24:03;;;;;;;10.23;8.00;;;11.60;99.90;;;;;;4926970;29;20542;-77
2022/10/27 03:26:29;;;;;;;10.27;7.93;;;11.60;99.90;;;;;;4928466;29;20211;-77
2022/10/27 03:28:54;;;;;;;8.97;7.93;;;11.60;99.90;;;;;;4928923;29;20297;-77
2022/10/27 03:31:19;;;;;;;13.47;8.00;;;11.50;99.90;;;;;;4928993;29;20195;-77
2022/10/27 03:33:45;;;;;;;9.90;7.33;;;11.50;99.90;;;;;;4928685;29;20326;-78
2022/10/27 03:36:10;;;;;;;9.43;7.40;;;11.50;99.90;;;;;;4926791;29;20202;-78
2022/10/27 03:38:37;;;;;;;10.03;7.60;;;11.40;99.90;;;;;;4929076;29;20190;-79
2022/10/27 03:41:02;;;;;;;10.40;7.47;;;11.40;99.90;;;;;;4938411;29;20217;-79
2022/10/27 03:43:28;;;;;;;11.27;8.07;;;11.40;99.90;;;;;;4938821;29;20711;-78
2022/10/27 03:45:53;;;;;;;12.17;8.13;;;11.40;99.90;;;;;;4938668;28;20197;-78
2022/10/27 03:48:19;;;;;;;11.60;7.10;;;11.30;99.90;;;;;;4942114;29;20219;-78
2022/10/27 03:50:47;;;;;;;10.90;8.13;;;11.30;99.90;;;;;;4935789;29;20208;-78
2022/10/27 03:53:12;;;;;;;8.90;7.33;;;11.30;99.90;;;;;;4929669;28;20963;-78
2022/10/27 03:55:38;;;;;;;9.20;7.60;;;11.30;99.90;;;;;;4932503;29;20208;-78
2022/10/27 03:58:03;;;;;;;10.23;7.47;;;11.30;99.90;;;;;;4933554;29;20197;-79
2022/10/27 04:00:31;;;;;;;11.90;8.47;;;11.30;99.90;;;;;;4932576;29;20208;-80
2022/10/27 04:02:57;;;;;;;8.97;7.93;;;11.30;99.90;;;;;;4927682;29;20212;-78
2022/10/27 04:05:23;;;;;;;8.47;7.60;;;11.30;99.90;;;;;;4932588;29;20220;-79
2022/10/27 04:07:49;;;;;;;11.13;7.70;;;11.30;99.90;;;;;;4936656;29;20214;-78
2022/10/27 04:10:15;;;;;;;7.70;6.77;;;11.30;99.90;;;;;;4938452;29;20355;-77
2022/10/27 04:12:48;;;;;;;11.57;8.20;;;11.30;99.90;;;;;;4935584;29;20220;-78
2022/10/27 04:15:13;;;;;;;11.43;8.57;;;11.30;99.90;;;;;;4927986;29;20224;-77
2022/10/27 04:17:39;;;;;;;9.90;7.90;;;11.30;99.90;;;;;;4936597;29;20241;-79
2022/10/27 04:20:05;;;;;;;8.57;7.73;;;11.30;99.90;;;;;;4940523;29;20198;-79
2022/10/27 04:22:31;;;;;;;8.80;7.83;;;11.40;99.90;;;;;;4939666;29;20208;-80
2022/10/27 04:24:57;;;;;;;10.43;8.30;;;11.40;99.90;;;;;;4939231;29;20277;-79
2022/10/27 04:27:22;;;;;;;9.70;7.63;;;11.40;99.90;;;;;;4941238;29;20213;-81
2022/10/27 04:29:48;;;;;;;9.37;7.77;;;11.40;99.90;;;;;;4931708;29;20210;-76
2022/10/27 04:32:13;;;;;;;9.90;8.63;;;11.40;99.90;;;;;;4932248;29;20198;-78
2022/10/27 04:34:39;;;;;;;10.10;8.20;;;11.40;99.90;;;;;;4931501;29;20233;-79
2022/10/27 04:37:04;;;;;;;10.90;9.30;;;11.50;99.90;;;;;;4931770;29;20205;-79
2022/10/27 04:39:30;;;;;;;9.40;8.00;;;11.40;99.90;;;;;;4930648;29;20234;-79
2022/10/27 04:41:55;;;;;;;7.97;7.17;;;11.40;99.90;;;;;;4932352;29;20207;-79
2022/10/27 04:44:21;;;;;;;11.77;8.13;;;11.40;99.90;;;;;;4931649;29;20269;-80
2022/10/27 04:46:46;;;;;;;10.17;8.03;;;11.40;99.90;;;;;;4931900;29;20230;-79
2022/10/27 04:49:12;;;;;;;11.97;9.30;;;11.40;99.90;;;;;;4932180;29;20387;-81
2022/10/27 04:51:37;;;;;;;9.73;7.60;;;11.40;99.90;;;;;;4932458;29;20199;-80
2022/10/27 04:54:03;;;;;;;9.23;7.30;;;11.40;99.90;;;;;;4934475;28;20218;-78
2022/10/27 04:56:28;;;;;;;10.00;7.47;;;11.40;99.90;;;;;;4930768;28;20866;-81
2022/10/27 04:58:54;;;;;;;10.00;8.10;;;11.40;99.90;;;;;;4931574;29;20794;-84
2022/10/27 05:01:19;;;;;;;10.63;7.83;;;11.30;99.90;;;;;;4933870;29;20629;-82
2022/10/27 05:03:48;;;;;;;10.63;7.30;;;11.30;99.90;;;;;;4935428;29;20206;-81
2022/10/27 05:06:13;;;;;;;10.73;7.93;;;11.40;99.90;;;;;;4927187;29;20207;-81
2022/10/27 05:08:39;;;;;;;12.27;7.40;;;11.40;99.90;;;;;;4931975;29;20220;-83
2022/10/27 05:11:04;;;;;;;8.87;7.20;;;11.30;99.90;;;;;;4931967;29;20682;-82
2022/10/27 05:13:30;;;;;;;7.87;7.07;;;11.30;99.90;;;;;;4936807;29;20259;-81
2022/10/27 05:16:03;;;;;;;12.53;7.80;;;11.30;99.90;;;;;;4941289;29;20208;-80
2022/10/27 05:18:28;;;;;;;11.30;7.90;;;11.30;99.90;;;;;;4938693;29;20201;-77
2022/10/27 05:20:55;;;;;;;11.00;7.63;;;11.20;99.90;;;;;;4932578;29;20282;-80
2022/10/27 05:23:20;;;;;;;8.03;6.93;;;11.20;99.90;;;;;;4935509;29;20875;-78
2022/10/27 05:25:53;;;;;;;10.57;7.43;;;11.20;99.90;;;;;;4931480;29;20797;-80
2022/10/27 05:28:19;;;;;;;12.00;7.47;;;11.10;99.90;;;;;;4928814;29;20540;-79
2022/10/27 05:30:45;;;;;;;13.53;7.27;;;11.10;99.90;;;;;;4930591;29;20343;-81
2022/10/27 05:33:10;;;;;;;8.37;7.17;;;11.10;99.90;;;;;;4930470;29;20732;-80
2022/10/27 05:35:36;;;;;;;10.80;7.77;;;11.10;99.90;;;;;;4930694;29;20198;-80
2022/10/27 05:38:01;;;;;;;10.07;8.10;;;11.10;99.90;;;;;;4930201;29;20561;-79
2022/10/27 05:40:33;;;;;;;11.63;7.83;;;11.10;99.90;;;;;;4930827;29;20265;-80
2022/10/27 05:42:59;;;;;;;11.53;8.07;;;11.00;99.90;;;;;;4925118;29;20229;-80
2022/10/27 05:45:25;;;;;;;9.87;8.10;;;11.00;99.90;;;;;;4931532;29;20767;-80
2022/10/27 05:47:59;;;;;;;9.37;8.17;;;11.00;99.90;;;;;;4934082;29;20232;-79
2022/10/27 05:50:25;;;;;;;8.80;7.50;;;11.00;99.90;;;;;;4928749;29;20243;-80
2022/10/27 05:52:51;;;;;;;9.20;8.13;;;11.00;99.90;;;;;;4929710;28;20292;-80
2022/10/27 05:55:16;;;;;;;9.03;8.17;;;11.00;99.90;;;;;;4931996;29;20657;-80
2022/10/27 05:57:41;;;;;;;8.63;7.73;;;11.00;99.90;;;;;;4928019;29;20209;-80
2022/10/27 06:00:08;;;;;;;9.90;7.13;;;11.00;99.90;;;;;;4930069;29;20200;-80
2022/10/27 06:02:33;;;;;;;10.67;7.53;;;11.10;99.90;;;;;;4930005;29;20310;-79
2022/10/27 06:04:58;;;;;;;8.43;7.60;;;11.00;99.90;;;;;;4928946;29;20664;-80
2022/10/27 06:07:24;;;;;;;13.23;8.23;;;11.10;99.90;;;;;;4930908;29;20203;-80
2022/10/27 06:09:49;;;;;;;10.83;8.87;;;11.10;99.90;;;;;;4934586;28;20548;-80
2022/10/27 06:12:15;;;;;;;8.73;7.80;;;11.20;99.90;;;;;;4927591;29;20208;-79
2022/10/27 06:14:40;;;;;;;8.90;6.73;;;11.20;99.90;;;;;;4930146;29;20722;-80
2022/10/27 06:17:06;;;;;;;10.10;8.37;;;11.20;99.90;;;;;;4928137;29;20210;-81
2022/10/27 06:19:31;;;;;;;9.10;7.93;;;11.30;99.90;;;;;;4929589;29;20214;-80
2022/10/27 06:21:57;;;;;;;13.90;8.97;;;11.30;99.90;;;;;;4929604;29;20791;-80
2022/10/27 06:24:22;;;;;;;9.40;8.20;;;11.30;99.90;;;;;;4931998;29;20211;-80
2022/10/27 06:26:48;;;;;;;8.57;7.77;;;11.40;99.90;;;;;;4928633;29;20211;-80
2022/10/27 06:29:13;;;;;;;9.73;7.90;;;11.40;99.90;;;;;;4929065;29;20207;-80
2022/10/27 06:31:41;;;;;;;8.43;7.63;;;11.40;99.90;;;;;;4926873;29;20300;-80
2022/10/27 06:34:07;;;;;;;12.53;8.17;;;11.50;99.90;;;;;;4931827;29;20214;-81
2022/10/27 06:36:32;;;;;;;10.40;8.17;;;11.50;99.90;;;;;;4931058;29;20569;-86
2022/10/27 06:38:58;;;;;;;7.93;6.97;;;11.50;99.90;;;;;;4935670;29;20779;-84
2022/10/27 06:41:23;;;;;;;10.43;8.60;;;11.60;99.90;;;;;;4934589;29;20212;-78
2022/10/27 06:43:49;;;;;;;9.80;8.13;;;11.70;99.90;;;;;;4931141;29;20358;-79
2022/10/27 06:46:14;;;;;;;11.97;8.43;;;11.60;99.90;;;;;;4927953;29;20226;-80
2022/10/27 06:48:40;;;;;;;12.57;7.57;;;11.70;99.90;;;;;;4925925;29;20202;-79
2022/10/27 06:51:05;;;;;;;12.17;8.33;;;11.70;99.90;;;;;;4929601;29;20940;-79
2022/10/27 06:53:31;;;;;;;9.07;8.10;;;11.80;99.90;;;;;;4929746;29;20224;-79
2022/10/27 06:55:57;;;;;;;8.23;7.20;;;11.80;99.90;;;;;;4929171;29;20206;-78
2022/10/27 06:58:23;;;;;;;11.50;8.57;;;11.80;99.90;;;;;;4929600;29;20253;-78
2022/10/27 07:00:48;;;;;;;9.27;8.20;;;11.90;99.90;;;;;;4930849;29;20195;-79
2022/10/27 07:03:14;;;;;;;8.87;7.97;;;11.90;99.90;;;;;;4930515;29;20573;-78
2022/10/27 07:05:40;;;;;;;9.10;7.70;;;12.00;99.90;;;;;;4930777;29;20208;-79
2022/10/27 07:08:05;;;;;;;8.63;7.47;;;12.10;99.90;;;;;;4930815;29;20206;-79
2022/10/27 07:10:31;;;;;;;10.67;7.87;;;12.20;99.90;;;;;;4930835;29;20593;-80
2022/10/27 07:12:58;;;;;;;9.27;7.67;;;12.30;99.90;;;;;;4921010;29;20873;-77
2022/10/27 07:15:26;;;;;;;13.97;7.83;;;12.40;99.90;;;;;;4923004;29;20207;-77
2022/10/27 07:17:59;;;;;;;9.67;7.50;;;12.50;99.90;;;;;;4929740;29;20233;-76
2022/10/27 07:20:26;;;;;;;10.07;6.60;;;12.60;99.90;;;;;;4928827;28;20206;-76
2022/10/27 07:22:51;;;;;;;11.30;7.20;;;12.70;99.90;;;;;;4920869;29;20198;-76
2022/10/27 07:25:16;;;;;;;11.53;7.10;;;12.70;99.90;;;;;;4929892;29;20261;-73
2022/10/27 07:27:46;;;;;;;15.03;8.30;;;12.80;99.90;;;;;;4929169;29;20207;-76
2022/10/27 07:30:12;;;;;;;11.83;7.07;;;12.90;99.90;;;;;;4928843;29;20293;-78
2022/10/27 07:32:37;;;;;;;7.83;6.90;;;13.00;99.90;;;;;;4929882;29;20296;-77
2022/10/27 07:35:03;;;;;;;7.57;6.70;;;13.10;99.90;;;;;;4927565;29;20928;-73
2022/10/27 07:37:29;;;;;;;7.97;6.97;;;13.20;99.90;;;;;;4928474;29;20241;-76
2022/10/27 07:39:54;;;;;;;9.13;6.87;;;13.30;99.90;;;;;;4929173;29;21042;-76
2022/10/27 07:42:20;;;;;;;9.90;6.57;;;13.40;99.90;;;;;;4926874;29;20229;-74
2022/10/27 07:44:45;;;;;;;8.43;6.97;;;13.50;99.90;;;;;;4929899;29;20206;-75
2022/10/27 07:47:11;;;;;;;8.73;6.90;;;13.60;99.90;;;;;;4922869;29;20702;-76
2022/10/27 07:49:36;;;;;;;7.60;6.43;;;13.70;99.90;;;;;;4924840;29;20190;-75
2022/10/27 07:52:02;;;;;;;10.33;6.80;;;13.80;99.90;;;;;;4923046;29;20299;-74
2022/10/27 07:54:28;;;;;;;6.37;5.70;;;14.00;99.90;;;;;;4923607;29;20229;-76
2022/10/27 07:56:54;;;;;;;8.53;6.47;;;14.10;99.90;;;;;;4924589;29;20225;-76
2022/10/27 07:59:19;;;;;;;8.83;7.50;;;14.10;99.90;;;;;;4928815;29;20203;-76
2022/10/27 08:01:45;;;;;;;7.50;6.50;;;14.20;99.90;;;;;;4930174;29;20222;-73
2022/10/27 08:04:10;;;;;;;8.40;5.37;;;14.20;99.90;;;;;;4927209;29;20835;-76
2022/10/27 08:06:36;;;;;;;7.93;6.33;;;14.30;99.90;;;;;;4927818;29;20265;-76
2022/10/27 08:09:02;;;;;;;10.07;6.17;;;14.30;99.90;;;;;;4928455;29;20550;-69
2022/10/27 08:11:28;;;;;;;10.93;6.37;;;14.30;99.90;;;;;;4926166;29;20210;-71
2022/10/27 08:13:53;;;;;;;9.13;6.80;;;14.30;99.90;;;;;;4928009;29;20666;-68
2022/10/27 08:16:19;;;;;;;7.93;5.93;;;14.40;99.90;;;;;;4930185;29;20202;-68
2022/10/27 08:18:44;;;;;;;7.10;5.70;;;14.40;99.90;;;;;;4922789;29;20617;-70
2022/10/27 08:21:10;;;;;;;6.37;5.20;;;14.40;99.90;;;;;;4923931;29;20199;-71
2022/10/27 08:23:37;;;;;;;7.27;5.80;;;14.50;99.90;;;;;;4918901;29;20194;-70
2022/10/27 08:26:02;;;;;;;8.30;5.90;;;14.50;99.90;;;;;;4919857;29;20297;-70
2022/10/27 08:28:28;;;;;;;9.47;5.70;;;14.50;99.90;;;;;;4920440;29;20395;-69
2022/10/27 08:30:53;;;;;;;7.80;5.70;;;14.60;99.90;;;;;;4922939;29;20194;-72
2022/10/27 08:33:22;;;;;;;5.77;5.27;;;14.60;99.90;;;;;;4925277;29;20345;-71
2022/10/27 08:35:49;;;;;;;6.70;5.90;;;14.70;99.90;;;;;;4919152;29;20207;-70
2022/10/27 08:38:15;;;;;;;7.37;5.30;;;14.70;99.90;;;;;;4922825;29;20449;-68
2022/10/27 08:40:55;;;;;;;6.80;5.40;;;14.80;99.90;;;;;;4925011;29;20635;-70
2022/10/27 08:43:59;;;;;;;6.10;5.50;;;14.80;99.90;;;;;;4925373;29;20206;-69
2022/10/27 08:46:45;;;;;;;6.50;5.83;;;14.90;99.90;;;;;;4924197;29;20241;-70
2022/10/27 08:49:26;;;;;;;9.70;5.57;;;14.90;99.90;;;;;;4923343;29;20242;-69
2022/10/27 08:51:58;;;;;;;10.07;5.90;;;15.00;99.90;;;;;;4930943;29;20859;-70
2022/10/27 08:54:26;;;;;;;8.67;5.57;;;15.10;99.90;;;;;;4930638;28;20619;-70
2022/10/27 08:56:55;;;;;;;6.47;5.80;;;15.10;99.90;;;;;;4927138;29;20262;-70
2022/10/27 08:59:24;;;;;;;5.27;4.70;;;15.20;99.90;;;;;;4931540;29;20571;-69
2022/10/27 09:02:26;;;;;;;9.33;6.17;;;15.30;99.90;;;;;;4922493;29;20198;-72
2022/10/27 09:05:10;;;;;;;8.60;5.57;;;15.30;99.90;;;;;;4923624;29;20269;-75
2022/10/27 09:07:46;;;;;;;8.53;5.10;;;15.40;99.90;;;;;;4925114;29;20205;-73
2022/10/27 09:10:30;;;;;;;8.83;5.17;;;15.40;99.90;;;;;;4919837;29;20201;-68
2022/10/27 09:13:00;;;;;;;8.10;5.33;;;15.50;99.90;;;;;;4921820;29;20226;-70
2022/10/27 09:15:49;;;;;;;6.07;4.73;;;15.60;99.90;;;;;;4926106;29;20218;-70
2022/10/27 09:18:33;;;;;;;7.80;4.87;;;15.70;99.90;;;;;;4923410;29;20730;-70
2022/10/27 09:21:03;;;;;;;5.53;4.73;;;15.70;99.90;;;;;;4923012;29;20293;-70
2022/10/27 09:23:37;;;;;;;6.53;5.30;;;15.80;99.90;;;;;;4925731;29;20583;-69
2022/10/27 09:26:02;;;;;;;6.27;5.50;;;15.90;99.90;;;;;;4909300;29;20206;-72
2022/10/27 09:28:28;;;;;;;9.73;5.40;;;16.00;99.90;;;;;;4925980;29;20195;-70
2022/10/27 09:30:54;;;;;;;6.33;5.10;;;16.20;99.90;;;;;;4928038;29;20210;-71
2022/10/27 09:33:26;;;;;;;7.53;5.30;;;16.20;99.90;;;;;;4920874;29;20218;-71
2022/10/27 09:35:52;;;;;;;7.30;5.07;;;16.30;99.90;;;;;;4918490;29;20199;-71
2022/10/27 09:38:23;;;;;;;4.83;4.43;;;16.40;99.90;;;;;;4922151;29;20203;-71
2022/10/27 09:40:49;;;;;;;8.77;4.90;;;16.50;99.90;;;;;;4921769;29;20666;-72
2022/10/27 09:43:14;;;;;;;7.90;5.23;;;16.60;99.90;;;;;;4920043;29;20314;-69
2022/10/27 09:45:42;;;;;;;5.43;4.80;;;16.70;99.90;;;;;;4927031;29;20298;-70
2022/10/27 09:48:16;;;;;;;8.80;4.67;;;16.70;99.90;;;;;;4930672;29;20238;-71
2022/10/27 09:51:04;;;;;;;6.73;5.20;;;16.80;99.90;;;;;;4930600;29;20305;-71
2022/10/27 09:53:40;;;;;;;5.87;5.07;;;16.90;99.90;;;;;;4929364;29;20246;-70
2022/10/27 09:56:10;;;;;;;6.77;5.40;;;17.00;99.90;;;;;;4925458;29;20277;-69
2022/10/27 09:58:42;;;;;;;11.07;4.77;;;17.10;99.90;;;;;;4929177;29;20194;-82
2022/10/27 10:01:09;;;;;;;8.20;4.77;;;17.30;99.90;;;;;;4928438;29;20209;-67
2022/10/27 10:03:37;;;;;;;9.83;5.53;;;17.40;99.90;;;;;;4928814;29;20231;-67
2022/10/27 10:06:09;;;;;;;6.60;4.30;;;17.60;99.90;;;;;;4926498;29;20202;-69
2022/10/27 10:08:37;;;;;;;4.53;3.43;;;17.70;99.90;;;;;;4929972;29;20236;-69
2022/10/27 10:11:18;;;;;;;4.03;3.73;;;17.70;99.90;;;;;;4930128;29;20256;-70
2022/10/27 10:13:56;;;;;;;6.90;4.10;;;17.80;99.90;;;;;;4921669;29;20220;-68
2022/10/27 10:16:22;;;;;;;6.97;3.87;;;18.00;99.90;;;;;;4923125;29;20686;-70
2022/10/27 10:19:06;;;;;;;4.87;3.30;;;18.10;99.90;;;;;;4926630;29;20209;-67
2022/10/27 10:21:58;;;;;;;6.63;3.43;;;18.20;99.90;;;;;;4928069;29;20551;-69
2022/10/27 10:24:28;;;;;;;7.70;3.87;;;18.30;99.90;;;;;;4930064;29;20744;-68
2022/10/27 10:26:56;;;;;;;4.50;2.97;;;18.40;99.90;;;;;;4925606;29;20765;-69
2022/10/27 10:29:47;;;;;;;5.03;3.23;;;18.50;99.90;;;;;;4928478;29;20214;-69
2022/10/27 10:32:15;;;;;;;4.40;3.13;;;18.50;99.90;;;;;;4922281;29;20204;-69
2022/10/27 10:34:44;;;;;;;4.40;2.50;;;18.50;99.90;;;;;;4929340;29;20227;-68
2022/10/27 10:37:41;;;;;;;3.10;2.60;;;18.60;99.90;;;;;;4927013;29;20278;-68
2022/10/27 10:40:25;;;;;;;4.60;3.40;;;18.60;99.90;;;;;;4926819;29;20209;-67
2022/10/27 10:43:04;;;;;;;4.70;2.80;;;18.70;99.90;;;;;;4929342;29;20222;-67
2022/10/27 10:45:33;;;;;;;5.17;3.07;;;18.80;99.90;;;;;;4925440;29;20296;-68
2022/10/27 10:48:13;;;;;;;7.13;3.33;;;18.90;99.90;;;;;;4928433;29;20240;-69
2022/10/27 10:50:49;;;;;;;6.93;2.80;;;19.00;99.90;;;;;;4924877;29;20261;-68
2022/10/27 10:53:22;;;;;;;4.53;3.37;;;19.10;99.90;;;;;;4929068;29;20218;-72
2022/10/27 10:55:48;;;;;;;3.20;2.90;;;19.30;99.90;;;;;;4927326;28;20316;-71
2022/10/27 10:58:20;;;;;;;4.00;2.87;;;19.60;99.90;;;;;;4928824;29;20284;-74
2022/10/27 11:01:03;;;;;;;3.70;2.40;;;19.70;99.90;;;;;;4929039;29;20208;-71
2022/10/27 11:03:46;;;;;;;4.20;2.60;;;19.80;99.90;;;;;;4918177;29;20200;-72
2022/10/27 11:06:18;;;;;;;4.77;2.57;;;19.90;99.90;;;;;;4925923;29;20208;-67
2022/10/27 11:08:54;;;;;;;6.10;2.57;;;20.10;99.90;;;;;;4929040;29;20904;-73
2022/10/27 11:11:24;;;;;;;3.57;2.67;;;20.20;99.90;;;;;;4926758;29;20319;-70
2022/10/27 11:13:59;;;;;;;7.37;3.40;;;20.40;99.90;;;;;;4920427;29;20225;-68
2022/10/27 11:16:26;;;;;;;7.60;2.63;;;20.50;99.90;;;;;;4920321;29;20216;-69
2022/10/27 11:18:54;;;;;;;4.17;2.50;;;20.60;99.90;;;;;;4924918;29;20211;-70
2022/10/27 11:21:52;;;;;;;4.60;2.60;;;20.70;99.90;;;;;;4921985;29;20291;-68
2022/10/27 11:24:40;;;;;;;4.77;2.77;;;20.70;99.90;;;;;;4920342;29;20209;-69
2022/10/27 11:27:14;;;;;;;3.80;2.63;;;20.90;99.90;;;;;;4920473;29;20213;-68
2022/10/27 11:30:02;;;;;;;7.43;2.43;;;20.90;99.90;;;;;;4925418;29;20213;-71
2022/10/27 11:32:36;;;;;;;3.63;1.80;;;21.10;99.90;;;;;;4920946;29;20600;-69
2022/10/27 11:35:24;;;;;;;3.57;2.33;;;21.20;99.90;;;;;;4925464;29;20678;-70
2022/10/27 11:38:18;;;;;;;3.57;2.50;;;21.40;99.90;;;;;;4922800;29;20692;-69
2022/10/27 11:40:51;;;;;;;4.93;2.00;;;21.30;99.90;;;;;;4921239;29;20678;-81
2022/10/27 11:43:25;;;;;;;3.30;2.17;;;21.20;99.90;;;;;;4929048;29;20570;-74
2022/10/27 11:46:03;;;;;;;3.67;2.20;;;21.10;99.90;;;;;;4920230;29;20358;-75
2022/10/27 11:48:32;;;;;;;4.20;2.40;;;21.30;99.90;;;;;;4925150;29;20203;-75
2022/10/27 11:51:11;;;;;;;4.57;2.93;;;21.50;99.90;;;;;;4922867;29;20212;-77
2022/10/27 11:53:36;;;;;;;2.30;2.10;;;21.70;99.90;;;;;;4924127;29;20218;-73
2022/10/27 11:56:37;;;;;;;6.23;2.50;;;21.70;99.90;;;;;;4924984;29;20675;-74
2022/10/27 11:59:21;;;;;;;2.53;2.30;;;21.80;99.90;;;;;;4926002;29;20289;-74
2022/10/27 12:02:10;;;;;;;3.73;2.60;;;21.80;99.90;;;;;;4926816;29;20190;-73
2022/10/27 12:04:52;;;;;;;3.53;1.93;;;21.90;99.90;;;;;;4924079;29;21428;-77
2022/10/27 12:07:46;;;;;;;5.70;2.50;;;22.30;99.90;;;;;;4926891;29;20233;-74
2022/10/27 12:10:42;;;;;;;3.50;3.17;;;22.60;99.90;;;;;;4928705;29;20209;-72
2022/10/27 12:13:36;;;;;;;8.63;3.63;;;23.10;99.90;;;;;;4938306;29;20704;-74
2022/10/27 12:16:09;;;;;;;6.33;4.07;;;23.40;99.90;;;;;;4938570;29;20202;-75
2022/10/27 12:18:55;;;;;;;9.90;2.57;;;23.90;99.90;;;;;;4934777;29;20202;-70
2022/10/27 12:21:37;;;;;;;5.20;2.87;;;24.20;99.90;;;;;;4939753;29;20385;-73
2022/10/27 12:24:15;;;;;;;9.27;2.88;;;24.60;99.90;;;;;;4934960;29;20310;-74
2022/10/27 12:26:54;;;;;;;9.55;7.38;;;25.00;99.90;;;;;;4929466;29;20202;-76
2022/10/27 12:29:21;;;;;;;3.58;2.53;;;25.40;99.90;;;;;;4936850;29;20204;-79
2022/10/27 12:31:56;;;;;;;5.95;2.70;;;25.50;99.90;;;;;;4921038;29;20210;-70
2022/10/27 12:34:28;;;;;;;8.77;5.60;;;26.00;99.90;;;;;;4940232;29;20217;-68
2022/10/27 12:37:04;;;;;;;6.78;3.33;;;26.30;99.30;;;;;;4937923;29;20202;-80
2022/10/27 12:39:46;;;;;;;6.20;2.97;;;26.30;97.70;;;;;;4937659;29;20206;-82
2022/10/27 12:42:31;;;;;;;4.22;2.10;;;26.30;97.70;;;;;;4932697;29;20740;-82
2022/10/27 12:45:06;;;;;;;3.75;3.40;;;26.30;97.70;;;;;;4933454;29;20217;-84
2022/10/27 12:47:44;;;;;;;11.93;7.18;;;26.00;97.00;;;;;;4903476;29;981612;-85
2022/10/27 12:50:20;;;;;;;2.47;2.28;;;25.80;97.10;;;;;;4937112;29;20208;-82
2022/10/27 12:52:59;;;;;;;10.60;5.93;;;25.70;97.40;;;;;;4931006;29;20244;-85
2022/10/27 12:55:58;;;;;;;12.27;8.15;;;25.50;97.10;;;;;;4933584;29;20255;-86
2022/10/27 12:58:35;;;;;;;9.00;6.05;;;25.50;97.30;;;;;;4932632;29;20201;-86
2022/10/27 13:01:24;;;;;;;9.55;5.32;;;25.50;96.90;;;;;;4929147;29;20214;-86
2022/10/27 13:04:25;;;;;;;4.45;3.05;;;25.30;97.00;;;;;;4926170;29;20206;-85